Startpagina
METAR-TAF:

METAR-TAF

Vliegvelden :

Auckland, Nieuw-Zeeland

Luchthaven van Auckland

breedte: 37-01S, lengte: 174-48E, hoogte: 7 m

Actueel weer

Dit bericht is 27 minuten geleden gemaakt, om 18:30 UTC
Wind 6 kt uit het noordoosten, variërend tussen het noorden en het oosten
Temperatuur 21°C
Vochtigheid 88%
Druk 1018 hPa
Zicht 10 km of meer

METAR: NZAA 191830Z AUTO 05006KT 010V080 9999 SCT014/// BKN023/// BKN028/// 21/19 Q1018 NOSIG

Tijdstip: 07:57 (18:57 UTC)

Verwachting

Dit bericht is 1 uur en het 51 minuten geleden gemaakt, om 17:06 UTC
Verwachting geldig van 19 om 18 UTC tot 20 om 18 UTC
Wind 10 kt uit het noordnoordoosten
Zicht 10 km of meer
Verspreide wolken op 2500 ft
Wijzigt naar
van 20 om 10 UTC tot 20 om 12 UTC
Gebroken wolken op 1500 ft

TAF: NZAA 191706Z 1918/2018 02010KT 9999 SCT025 BECMG 2010/2012 BKN015

Waarnemingen en weersverwachtingen van meer dan 4000 vliegvelden (METAR en TAF).

De beschikbare stations zijn de gele en rode punten op de kaart.

Ga met uw muis naar het station om de naam te zien.

Klik dan om waarnemingen en weersverwachtingen te zien.

kaart wijzigen: klik op de groene knoppen met een zwart kruis om in te zoomen, op de groene knop met een streepje om uit te zoomen of op de groene pijlen voor aangrenzende kaarten.


METAR-TAF: